Time;durP1;ratioP1;P1;durP2;ratioP2;P2;SDS_P1;SDS_P2;PMS_P1;PMS_P2;Temp;Humidity;BMP_temperature;BMP_pressure;BME280_temperature;BME280_humidity;BME280_pressure;Samples;Min_cycle;Max_cycle;Signal;HPM_P1;HPM_P2
2023/05/03 00:00:51;;;;;;;;;1.00;1.00;;;;;14.07;65.00;100255.38;5066959;28;45524;-71
2023/05/03 00:03:21;;;;;;;;;1.67;1.67;;;;;14.02;65.44;100256.19;5075202;28;45640;-72
2023/05/03 00:05:47;;;;;;;;;2.00;2.00;;;;;13.82;65.11;100234.97;5074654;28;45673;-71
2023/05/03 00:08:13;;;;;;;;;1.00;1.00;;;;;13.79;65.05;100235.81;5075562;28;45574;-72
2023/05/03 00:10:38;;;;;;;;;1.00;1.00;;;;;13.84;65.47;100241.97;5073863;28;46319;-72
2023/05/03 00:13:04;;;;;;;;;2.00;1.75;;;;;13.78;65.11;100223.53;5075624;28;45464;-72
2023/05/03 00:15:29;;;;;;;;;2.00;2.00;;;;;13.87;65.21;100223.66;5075822;28;45419;-72
2023/05/03 00:17:55;;;;;;;;;1.33;1.33;;;;;13.86;65.23;100227.13;5074058;28;45515;-72
2023/05/03 00:20:21;;;;;;;;;1.00;1.00;;;;;13.83;64.40;100215.72;5073791;28;45456;-72
2023/05/03 00:22:46;;;;;;;;;1.00;1.00;;;;;13.86;64.68;100215.75;5075706;28;45435;-71
2023/05/03 00:25:12;;;;;;;;;2.00;2.00;;;;;13.70;65.06;100191.94;5075532;28;46349;-72
2023/05/03 00:27:37;;;;;;;;;1.00;1.00;;;;;13.77;65.25;100199.88;5075450;28;45745;-72
2023/05/03 00:30:04;;;;;;;;;1.33;1.00;;;;;13.78;65.31;100199.91;5067740;28;47121;-72
2023/05/03 00:32:29;;;;;;;;;2.33;1.33;;;;;13.82;65.31;100206.94;5075014;28;45674;-72
2023/05/03 00:34:56;;;;;;;;;2.00;1.00;;;;;13.83;65.71;100206.09;5073437;28;45455;-73
2023/05/03 00:37:25;;;;;;;;;2.00;2.00;;;;;13.86;65.59;100216.63;5075346;28;45385;-71
2023/05/03 00:39:51;;;;;;;;;1.00;1.00;;;;;13.80;65.15;100205.19;5075462;28;45524;-71
2023/05/03 00:42:16;;;;;;;;;1.33;1.00;;;;;13.75;65.38;100194.63;5074334;28;45436;-71
2023/05/03 00:44:42;;;;;;;;;1.67;1.00;;;;;13.76;65.34;100188.50;5064995;28;46444;-71
2023/05/03 00:47:08;;;;;;;;;1.25;1.25;;;;;13.68;65.31;100185.78;5091551;27;45559;-71
2023/05/03 00:49:34;;;;;;;;;2.00;2.00;;;;;13.72;65.42;100191.97;5072914;28;45470;-71
2023/05/03 00:52:00;;;;;;;;;3.00;2.50;;;;;13.61;66.23;100178.72;5076730;28;45588;-71
2023/05/03 00:54:29;;;;;;;;;2.00;2.00;;;;;13.27;66.61;100125.81;5075336;28;46536;-71
2023/05/03 00:56:55;;;;;;;;;2.00;2.00;;;;;13.53;66.37;100175.13;5075867;28;45337;-71
2023/05/03 00:59:21;;;;;;;;;1.00;1.00;;;;;13.42;66.96;100156.63;5075765;28;45528;-72
2023/05/03 01:01:51;;;;;;;;;1.00;1.00;;;;;13.52;66.30;100170.72;5074513;27;45369;-72
2023/05/03 01:04:19;;;;;;;;;2.25;1.75;;;;;13.37;66.74;100136.44;5075773;27;45499;-72
2023/05/03 01:07:00;;;;;;;;;1.00;1.00;;;;;13.44;66.22;100148.78;5074568;28;45336;-73
2023/05/03 01:09:45;;;;;;;;;1.00;1.00;;;;;13.47;66.20;100146.19;5067793;28;45315;-73
2023/05/03 01:12:11;;;;;;;;;1.75;1.25;;;;;13.52;65.98;100153.25;5075773;27;45689;-73
2023/05/03 01:14:51;;;;;;;;;1.25;1.00;;;;;13.51;65.94;100140.13;5075285;27;45920;-73
2023/05/03 01:17:21;;;;;;;;;1.33;1.00;;;;;13.43;66.02;100129.53;5072679;28;45390;-73
2023/05/03 01:19:50;;;;;;;;;1.00;1.00;;;;;13.39;66.29;100125.13;5076333;28;45503;-72
2023/05/03 01:22:45;;;;;;;;;1.00;1.00;;;;;13.38;67.12;100138.22;5073329;28;45634;-71
2023/05/03 01:25:12;;;;;;;;;1.00;1.00;;;;;13.34;66.93;100121.53;5074856;28;45345;-72
2023/05/03 01:27:39;;;;;;;;;2.00;1.50;;;;;13.35;66.47;100123.31;5075225;28;45550;-71
2023/05/03 01:30:07;;;;;;;;;1.00;1.00;;;;;13.30;66.52;100122.38;5078719;28;45341;-73
2023/05/03 01:32:38;;;;;;;;;1.00;1.00;;;;;13.32;66.68;100116.28;5079072;28;45455;-72
2023/05/03 01:35:14;;;;;;;;;1.00;1.00;;;;;13.22;66.90;100105.63;5075068;27;46563;-72
2023/05/03 01:37:42;;;;;;;;;2.25;2.00;;;;;13.06;67.79;100100.19;5075237;28;45534;-72
2023/05/03 01:40:10;;;;;;;;;1.50;1.00;;;;;12.91;68.29;100105.22;5079226;28;45505;-73
2023/05/03 01:42:37;;;;;;;;;1.25;1.25;;;;;12.82;68.62;100102.50;5078817;28;45428;-73
2023/05/03 01:45:04;;;;;;;;;0.00;0.00;;;;;12.86;68.30;100099.06;5076745;28;45510;-72
2023/05/03 01:47:30;;;;;;;;;1.75;1.75;;;;;12.95;68.23;100114.88;5078340;28;45369;-73
2023/05/03 01:49:55;;;;;;;;;2.00;1.00;;;;;12.71;68.88;100091.84;5078195;28;45431;-71
2023/05/03 01:52:22;;;;;;;;;1.00;1.00;;;;;12.81;68.54;100111.22;5078695;28;45410;-73
2023/05/03 01:54:47;;;;;;;;;0.00;0.00;;;;;12.73;68.28;100092.75;5078775;27;45431;-73
2023/05/03 01:57:13;;;;;;;;;2.00;1.00;;;;;12.56;68.88;100068.06;5077538;27;45389;-72
2023/05/03 01:59:38;;;;;;;;;3.00;1.75;;;;;12.64;69.52;100088.28;5076801;27;45867;-72
2023/05/03 02:02:04;;;;;;;;;1.25;1.25;;;;;12.66;69.78;100101.41;5078991;27;45788;-73
2023/05/03 02:04:30;;;;;;;;;2.00;1.75;;;;;12.61;69.34;100084.72;5076479;28;46239;-73
2023/05/03 02:06:55;;;;;;;;;4.00;2.00;;;;;12.68;68.79;100092.69;5078275;27;45251;-73
2023/05/03 02:09:21;;;;;;;;;1.00;1.00;;;;;12.66;68.79;100072.56;5078359;28;45393;-72
2023/05/03 02:11:47;;;;;;;;;3.00;2.00;;;;;12.78;69.19;100085.84;5078776;28;45679;-73
2023/05/03 02:14:12;;;;;;;;;2.25;1.00;;;;;12.57;70.01;100064.56;5076577;28;47041;-72
2023/05/03 02:16:38;;;;;;;;;2.00;2.00;;;;;12.53;69.33;100071.50;5078043;28;46484;-72
2023/05/03 02:19:06;;;;;;;;;3.00;3.00;;;;;12.37;69.48;100048.56;5078573;28;45499;-72
2023/05/03 02:21:33;;;;;;;;;2.00;2.00;;;;;12.45;69.15;100062.66;5078282;27;45507;-72
2023/05/03 02:23:58;;;;;;;;;2.00;2.00;;;;;12.63;69.40;100081.25;5078437;28;46144;-72
2023/05/03 02:26:24;;;;;;;;;2.00;2.00;;;;;12.46;69.41;100054.81;5078022;27;45795;-72
2023/05/03 02:28:49;;;;;;;;;2.00;2.00;;;;;12.57;69.67;100072.44;5078240;28;45235;-72
2023/05/03 02:31:15;;;;;;;;;3.00;2.50;;;;;12.62;69.48;100082.13;5111397;27;45599;-72
2023/05/03 02:33:40;;;;;;;;;2.25;2.00;;;;;12.59;69.12;100068.09;5067424;28;46750;-72
2023/05/03 02:36:06;;;;;;;;;2.00;2.00;;;;;12.65;69.28;100081.28;5057716;28;45486;-72
2023/05/03 02:38:32;;;;;;;;;2.75;2.00;;;;;12.62;68.62;100071.66;5039663;28;45518;-72
2023/05/03 02:40:58;;;;;;;;;2.50;2.00;;;;;12.70;68.98;100082.25;5056300;28;45466;-72
2023/05/03 02:43:24;;;;;;;;;1.00;1.00;;;;;12.62;68.54;100071.66;5057412;28;46304;-72
2023/05/03 02:45:49;;;;;;;;;1.00;1.00;;;;;12.67;68.61;100076.94;5057060;28;45345;-71
2023/05/03 02:48:15;;;;;;;;;2.00;2.00;;;;;12.62;68.66;100057.66;5057339;28;45699;-72
2023/05/03 02:50:41;;;;;;;;;3.75;1.50;;;;;12.70;68.74;100072.63;5057196;28;45482;-73
2023/05/03 02:53:07;;;;;;;;;3.00;2.00;;;;;12.47;69.25;100037.34;5050060;28;45422;-71
2023/05/03 02:55:33;;;;;;;;;3.00;1.25;;;;;12.48;69.56;100058.34;5051224;28;45351;-72
2023/05/03 02:57:58;;;;;;;;;1.25;1.25;;;;;12.49;69.19;100052.28;5057222;28;45381;-72
2023/05/03 03:00:24;;;;;;;;;0.00;0.00;;;;;12.48;69.28;100047.00;5058025;28;45379;-72
2023/05/03 03:02:49;;;;;;;;;3.00;2.00;;;;;12.39;69.94;100036.38;5056883;28;45583;-72
2023/05/03 03:05:16;;;;;;;;;1.00;1.00;;;;;12.37;69.54;100043.34;5038882;28;45450;-72
2023/05/03 03:07:42;;;;;;;;;2.00;2.00;;;;;12.42;70.47;100053.03;5057478;28;45449;-72
2023/05/03 03:10:08;;;;;;;;;2.00;2.00;;;;;12.20;70.78;100024.78;5057032;28;46029;-72
2023/05/03 03:12:37;;;;;;;;;2.00;1.00;;;;;12.25;70.46;100025.69;5057062;28;45569;-72
2023/05/03 03:15:03;;;;;;;;;2.75;1.50;;;;;12.29;71.11;100028.38;5054346;28;45629;-72
2023/05/03 03:17:30;;;;;;;;;2.00;1.00;;;;;12.37;70.41;100038.97;5057490;28;45482;-73
2023/05/03 03:19:57;;;;;;;;;1.00;1.00;;;;;12.36;69.63;100031.97;5057333;28;45560;-72
2023/05/03 03:22:23;;;;;;;;;1.00;1.00;;;;;12.41;69.94;100032.03;5056040;28;45443;-72
2023/05/03 03:24:48;;;;;;;;;5.50;4.75;;;;;12.42;69.88;100029.44;5057579;28;45371;-72
2023/05/03 03:27:14;;;;;;;;;2.00;2.00;;;;;12.46;69.67;100035.63;5039883;28;45963;-72
2023/05/03 03:29:40;;;;;;;;;2.50;1.00;;;;;12.35;68.91;100011.88;5039800;28;45294;-72
2023/05/03 03:32:05;;;;;;;;;1.00;1.00;;;;;12.40;69.70;100014.56;5057768;28;46039;-72
2023/05/03 03:34:31;;;;;;;;;1.25;1.00;;;;;12.46;69.70;100026.00;5074017;28;45835;-72
2023/05/03 03:36:57;;;;;;;;;2.25;1.75;;;;;12.48;69.47;100029.53;5075892;28;45282;-72
2023/05/03 03:39:23;;;;;;;;;3.50;2.00;;;;;12.40;69.43;100010.22;5076167;28;45639;-72
2023/05/03 03:41:48;;;;;;;;;3.00;2.75;;;;;12.38;69.87;99997.97;5076782;28;45451;-73
2023/05/03 03:44:14;;;;;;;;;2.00;2.00;;;;;12.38;69.70;99998.84;5075678;28;46227;-72
2023/05/03 03:46:39;;;;;;;;;2.00;1.50;;;;;12.43;69.48;100009.38;5076924;27;45658;-71
2023/05/03 03:49:05;;;;;;;;;1.25;1.25;;;;;12.53;69.73;100016.47;5076560;28;45414;-72
2023/05/03 03:51:30;;;;;;;;;1.75;1.75;;;;;12.47;69.87;100012.06;5077176;28;45381;-73
2023/05/03 03:53:56;;;;;;;;;1.00;1.00;;;;;12.47;69.45;100001.59;5077003;28;45307;-71
2023/05/03 03:56:22;;;;;;;;;2.00;2.00;;;;;12.50;69.37;100008.59;5076881;28;45366;-71
2023/05/03 03:58:48;;;;;;;;;1.00;1.00;;;;;12.45;69.44;99995.41;5076486;28;45685;-73
2023/05/03 04:01:13;;;;;;;;;2.00;2.00;;;;;12.59;69.19;100018.31;5071795;28;46266;-71
2023/05/03 04:03:39;;;;;;;;;2.00;2.00;;;;;12.43;69.25;99991.03;5067242;28;45328;-71
2023/05/03 04:06:04;;;;;;;;;1.00;1.00;;;;;12.41;69.14;99993.63;5061161;28;45415;-72
2023/05/03 04:08:30;;;;;;;;;1.00;1.00;;;;;12.34;69.23;99981.31;5075387;28;45222;-71
2023/05/03 04:10:55;;;;;;;;;2.00;1.00;;;;;12.40;69.57;99988.38;5076831;28;45794;-71
2023/05/03 04:13:21;;;;;;;;;1.00;1.00;;;;;12.29;69.54;99978.63;5075048;28;45527;-71
2023/05/03 04:15:46;;;;;;;;;2.00;2.00;;;;;12.34;69.59;99994.41;5077465;28;45461;-71
2023/05/03 04:18:12;;;;;;;;;1.00;1.00;;;;;12.41;69.01;99996.25;5077850;28;45320;-71
2023/05/03 04:20:37;;;;;;;;;2.00;1.00;;;;;12.30;70.17;100000.47;5077442;28;45365;-71
2023/05/03 04:23:03;;;;;;;;;1.75;1.75;;;;;12.32;70.54;100006.59;5077228;28;45264;-72
2023/05/03 04:25:30;;;;;;;;;2.00;1.25;;;;;12.22;70.39;100002.09;5077231;28;45473;-72
2023/05/03 04:27:57;;;;;;;;;1.50;1.50;;;;;12.10;70.70;99987.97;5076251;28;45472;-72
2023/05/03 04:30:23;;;;;;;;;3.00;2.50;;;;;12.07;70.78;99992.25;5077018;28;45443;-72
2023/05/03 04:32:53;;;;;;;;;2.00;2.00;;;;;12.05;70.24;99991.38;5075772;28;45499;-73
2023/05/03 04:35:18;;;;;;;;;2.25;2.00;;;;;12.17;70.87;100009.88;5077281;27;45337;-72
2023/05/03 04:37:44;;;;;;;;;1.75;1.00;;;;;12.06;70.89;99994.00;5077235;27;45550;-72
2023/05/03 04:40:11;;;;;;;;;5.00;3.00;;;;;11.87;71.28;99964.00;5076891;28;45410;-72
2023/05/03 04:42:37;;;;;;;;;1.00;1.00;;;;;12.12;71.19;100011.56;5075697;28;45318;-72
2023/05/03 04:45:08;;;;;;;;;2.00;2.00;;;;;12.12;70.55;100007.19;5077584;27;45475;-72
2023/05/03 04:47:34;;;;;;;;;2.00;2.00;;;;;12.05;71.20;99986.13;5077321;28;45405;-73
2023/05/03 04:50:00;;;;;;;;;2.00;2.00;;;;;12.09;70.98;99993.16;5076959;28;46209;-72
2023/05/03 04:52:26;;;;;;;;;2.00;2.00;;;;;12.11;70.83;99992.31;5076709;28;45456;-72
2023/05/03 04:54:52;;;;;;;;;3.00;2.50;;;;;12.24;70.59;100000.38;5075494;28;45317;-72
2023/05/03 04:57:17;;;;;;;;;2.00;1.00;;;;;12.23;70.19;99993.38;5076941;28;45342;-71
2023/05/03 04:59:43;;;;;;;;;3.00;2.50;;;;;12.30;70.07;100010.94;5076739;28;46316;-72
2023/05/03 05:02:09;;;;;;;;;4.00;2.25;;;;;12.17;70.18;99983.69;5075766;28;45384;-72
2023/05/03 05:04:35;;;;;;;;;1.75;1.00;;;;;12.33;70.01;100006.63;5078848;28;45401;-71
2023/05/03 05:07:00;;;;;;;;;1.75;1.00;;;;;12.23;69.99;99982.91;5080619;28;45294;-72
2023/05/03 05:09:29;;;;;;;;;2.00;2.00;;;;;12.45;70.17;100005.03;5078567;28;46514;-72
2023/05/03 05:11:55;;;;;;;;;3.00;2.00;;;;;12.50;69.97;100004.22;5080201;28;45469;-72
2023/05/03 05:14:21;;;;;;;;;13.25;13.25;;;;;12.46;69.76;99994.56;5078785;28;45374;-72
2023/05/03 05:16:46;;;;;;;;;2.00;2.00;;;;;12.49;68.94;99994.63;5079156;28;45504;-72
2023/05/03 05:19:12;;;;;;;;;2.00;2.00;;;;;12.67;69.36;99998.31;5078952;28;45731;-71
2023/05/03 05:21:38;;;;;;;;;2.00;2.00;;;;;12.58;69.10;99985.13;5079241;28;45413;-71
2023/05/03 05:24:04;;;;;;;;;1.25;1.00;;;;;12.77;68.99;100005.44;5078529;28;45571;-71
2023/05/03 05:26:30;;;;;;;;;2.25;2.00;;;;;12.74;69.10;100000.16;5077764;28;45538;-71
2023/05/03 05:28:56;;;;;;;;;3.00;2.25;;;;;12.84;68.78;99994.19;5078829;27;45508;-72
2023/05/03 05:31:23;;;;;;;;;2.25;2.00;;;;;13.08;68.39;100003.19;5078198;27;45622;-70
2023/05/03 05:33:48;;;;;;;;;2.00;2.00;;;;;13.03;68.39;99981.28;5079165;27;45495;-71
2023/05/03 05:36:14;;;;;;;;;2.00;2.00;;;;;13.23;67.12;99992.88;5078593;27;45380;-71
2023/05/03 05:38:40;;;;;;;;;3.00;2.00;;;;;13.42;67.11;100008.81;5078646;27;46229;-71
2023/05/03 05:41:05;;;;;;;;;2.00;2.00;;;;;13.54;67.25;100011.56;5078071;28;45358;-71
2023/05/03 05:43:31;;;;;;;;;3.00;2.25;;;;;13.61;66.89;100000.25;5079258;27;45816;-71
2023/05/03 05:45:57;;;;;;;;;2.00;2.00;;;;;13.76;66.33;100006.50;5079133;27;45318;-71
2023/05/03 05:48:22;;;;;;;;;2.33;2.00;;;;;13.81;66.56;100003.06;5077233;28;45499;-71
2023/05/03 05:50:48;;;;;;;;;2.33;2.00;;;;;13.96;66.37;100014.53;5085270;27;45540;-71
2023/05/03 05:53:14;;;;;;;;;4.00;4.00;;;;;14.08;66.40;100026.00;5078992;28;45869;-71
2023/05/03 05:55:39;;;;;;;;;2.25;2.00;;;;;14.12;66.24;100001.53;5078937;27;45453;-72
2023/05/03 05:58:05;;;;;;;;;4.00;4.00;;;;;14.23;65.58;99996.34;5077328;28;47055;-71
2023/05/03 06:00:31;;;;;;;;;3.00;3.00;;;;;14.30;65.57;99992.00;5078456;27;45410;-71
2023/05/03 06:02:56;;;;;;;;;4.00;3.00;;;;;14.52;65.19;99993.88;5076441;28;45570;-72
2023/05/03 06:05:22;;;;;;;;;3.75;3.50;;;;;14.66;65.26;99999.25;5078081;27;45361;-72
2023/05/03 06:07:48;;;;;;;;;3.00;3.00;;;;;14.82;65.31;100002.81;5078317;27;45451;-72
2023/05/03 06:10:14;;;;;;;;;2.00;2.00;;;;;14.94;64.65;99991.47;5078530;28;45456;-72
2023/05/03 06:12:40;;;;;;;;;3.25;3.25;;;;;15.08;64.37;99992.38;5078465;27;45492;-72
2023/05/03 06:15:06;;;;;;;;;2.00;2.00;;;;;15.29;64.31;99990.66;5086179;27;45450;-73
2023/05/03 06:17:32;;;;;;;;;2.00;2.00;;;;;16.21;62.74;100003.84;5077469;27;46608;-71
2023/05/03 06:19:57;;;;;;;;;4.00;3.00;;;;;18.46;59.15;100006.03;5078107;27;45860;-72
2023/05/03 06:22:24;;;;;;;;;2.00;2.00;;;;;21.58;49.75;99973.25;5078299;27;45449;-72
2023/05/03 06:24:50;;;;;;;;;1.00;1.00;;;;;24.12;44.61;99984.50;5077859;27;45419;-71
2023/05/03 06:27:16;;;;;;;;;1.00;1.00;;;;;26.14;39.38;99982.06;5078054;27;45440;-72
2023/05/03 06:29:43;;;;;;;;;2.33;2.00;;;;;27.86;36.43;99989.28;5075003;28;45292;-71
2023/05/03 06:32:08;;;;;;;;;3.00;3.00;;;;;28.87;34.49;99983.13;5077586;27;45456;-72
2023/05/03 06:34:34;;;;;;;;;2.00;2.00;;;;;29.69;32.73;99947.13;5078060;28;45461;-72
2023/05/03 06:36:59;;;;;;;;;1.33;1.33;;;;;30.70;31.38;99981.44;5078513;27;45340;-72
2023/05/03 06:39:25;;;;;;;;;3.00;2.67;;;;;31.04;31.41;99979.31;5078973;28;45180;-73
2023/05/03 06:41:50;;;;;;;;;3.00;2.00;;;;;31.65;30.27;99950.13;5078832;27;45493;-73
2023/05/03 06:44:16;;;;;;;;;5.00;4.00;;;;;32.43;30.17;99970.06;5079151;27;45406;-73
2023/05/03 06:46:42;;;;;;;;;3.00;2.00;;;;;33.01;28.80;99968.63;5078529;27;46649;-74
2023/05/03 06:49:07;;;;;;;;;4.00;3.33;;;;;33.98;28.16;99972.28;5077450;28;45529;-74
2023/05/03 06:51:33;;;;;;;;;0.33;0.33;;;;;34.56;26.96;99952.41;5077205;28;45302;-73
2023/05/03 06:54:05;;;;;;;;;6.00;4.33;;;;;35.25;26.02;99964.00;5078433;27;45441;-74
2023/05/03 06:56:33;;;;;;;;;3.33;2.67;;;;;35.53;26.27;99959.00;5078783;27;46404;-74
2023/05/03 06:59:00;;;;;;;;;4.00;3.00;;;;;35.62;26.60;99958.22;5078485;27;45390;-75
2023/05/03 07:01:26;;;;;;;;;6.00;5.00;;;;;35.97;24.98;99962.56;5072176;28;45466;-75
2023/05/03 07:03:51;;;;;;;;;13.33;12.33;;;;;36.68;24.36;99971.91;5058793;28;45398;-76
2023/05/03 07:06:17;;;;;;;;;2.33;2.33;;;;;37.18;23.84;99969.22;5073009;28;45434;-75
2023/05/03 07:08:43;;;;;;;;;2.00;1.33;;;;;37.08;23.74;99962.88;5076373;28;45398;-75
2023/05/03 07:11:09;;;;;;;;;2.33;1.00;;;;;37.89;22.11;99968.19;5078272;27;45468;-75
2023/05/03 07:13:35;;;;;;;;;1.33;1.33;;;;;38.41;23.56;99960.50;5084903;27;45314;-74
2023/05/03 07:16:00;;;;;;;;;3.00;2.00;;;;;39.35;21.10;99967.72;5077160;27;45314;-76
2023/05/03 07:18:26;;;;;;;;;1.00;1.00;;;;;40.13;20.28;99965.25;5077535;27;45236;-76
2023/05/03 07:20:52;;;;;;;;;2.00;1.00;;;;;40.62;20.40;99975.66;5077815;28;45325;-74
2023/05/03 07:23:17;;;;;;;;;1.00;0.00;;;;;41.10;20.55;99970.59;5077804;27;45440;-74
2023/05/03 07:25:44;;;;;;;;;0.00;0.00;;;;;41.62;20.55;99961.34;5077363;27;45534;-74
2023/05/03 07:28:10;;;;;;;;;2.00;2.00;;;;;42.06;19.31;99953.69;5077781;28;45503;-74
2023/05/03 07:30:35;;;;;;;;;1.00;0.67;;;;;42.22;17.16;99972.00;5077886;28;45478;-74
2023/05/03 07:33:01;;;;;;;;;1.33;1.33;;;;;42.80;16.80;99945.28;5076865;28;45310;-74
2023/05/03 07:35:27;;;;;;;;;1.67;1.67;;;;;43.58;15.39;99957.25;5076677;28;47058;-74
2023/05/03 07:37:53;;;;;;;;;0.33;0.33;;;;;44.05;15.26;99945.19;5076192;28;45287;-74
2023/05/03 07:40:18;;;;;;;;;0.00;0.00;;;;;44.53;14.04;99960.56;5077770;28;45499;-73
2023/05/03 07:42:45;;;;;;;;;0.33;0.00;;;;;45.08;11.56;99952.84;5078224;28;45381;-74
2023/05/03 07:45:10;;;;;;;;;1.67;1.00;;;;;45.40;11.70;99954.28;5076696;27;45704;-74
2023/05/03 07:47:38;;;;;;;;;0.67;0.00;;;;;45.92;12.51;99949.50;5076291;28;45444;-74
2023/05/03 07:50:04;;;;;;;;;0.00;0.00;;;;;46.30;11.24;99941.78;5077944;28;45244;-73
2023/05/03 07:52:35;;;;;;;;;0.00;0.00;;;;;46.29;11.51;99945.56;5077511;28;45294;-74
2023/05/03 07:55:02;;;;;;;;;0.67;0.67;;;;;46.19;10.82;99931.28;5077595;27;46127;-74
2023/05/03 07:57:27;;;;;;;;;0.00;0.00;;;;;45.93;10.39;99935.50;5077662;28;45488;-74
2023/05/03 07:59:53;;;;;;;;;0.67;0.67;;;;;45.26;10.61;99932.06;5076635;28;45564;-74
2023/05/03 08:02:19;;;;;;;;;1.67;0.67;;;;;45.25;10.51;99929.50;5076640;28;45512;-74
2023/05/03 08:04:45;;;;;;;;;1.33;0.67;;;;;45.30;11.47;99913.25;5077266;28;46389;-74
2023/05/03 08:07:10;;;;;;;;;0.00;0.00;;;;;45.85;11.07;99919.09;5077308;28;45338;-74
2023/05/03 08:09:36;;;;;;;;;0.00;0.00;;;;;45.77;9.32;99916.47;5077793;28;45278;-74
2023/05/03 08:12:02;;;;;;;;;1.67;1.33;;;;;45.64;11.18;99918.06;5076114;28;45432;-74
2023/05/03 08:14:27;;;;;;;;;0.33;0.33;;;;;45.35;10.59;99904.41;5077217;28;45512;-74
2023/05/03 08:16:53;;;;;;;;;1.67;0.67;;;;;44.85;11.06;99916.09;5077262;28;45547;-74
2023/05/03 08:19:18;;;;;;;;;0.00;0.00;;;;;44.54;11.29;99901.69;5077527;28;45433;-74
2023/05/03 08:21:46;;;;;;;;;0.00;0.00;;;;;44.48;10.13;99909.66;5072454;28;45267;-73
2023/05/03 08:24:15;;;;;;;;;0.00;0.00;;;;;44.14;10.96;99912.09;5056202;28;45694;-74
2023/05/03 08:26:41;;;;;;;;;0.00;0.00;;;;;43.62;11.34;99909.06;5070639;28;45513;-74
2023/05/03 08:29:07;;;;;;;;;0.00;0.00;;;;;43.07;11.80;99910.13;5076604;28;45347;-74
2023/05/03 08:31:33;;;;;;;;;0.00;0.00;;;;;43.01;10.96;99905.34;5076251;28;45476;-74
2023/05/03 08:34:00;;;;;;;;;0.67;0.67;;;;;43.01;10.81;99905.34;5056789;28;47089;-74
2023/05/03 08:36:26;;;;;;;;;0.00;0.00;;;;;42.99;10.63;99910.19;5056331;28;45267;-74
2023/05/03 08:38:51;;;;;;;;;0.67;0.67;;;;;42.89;10.85;99891.16;5057496;28;45327;-74
2023/05/03 08:41:30;;;;;;;;;0.33;0.00;;;;;42.86;10.21;99897.88;5076128;28;45449;-74
2023/05/03 08:44:04;;;;;;;;;0.00;0.00;;;;;42.56;11.40;99893.19;5079085;28;45913;-74
2023/05/03 08:46:30;;;;;;;;;0.00;0.00;;;;;42.97;11.01;99879.28;5080052;28;45527;-74
2023/05/03 08:48:56;;;;;;;;;0.67;0.67;;;;;43.50;11.59;99885.81;5079986;28;45511;-74
2023/05/03 08:51:23;;;;;;;;;0.67;0.67;;;;;43.78;10.13;99875.09;5079476;27;45528;-74
2023/05/03 08:53:49;;;;;;;;;2.00;1.33;;;;;44.27;10.65;99891.13;5080242;28;45630;-74
2023/05/03 08:56:39;;;;;;;;;0.67;0.67;;;;;44.20;10.19;99894.81;5079307;28;45192;-74
2023/05/03 08:59:08;;;;;;;;;2.67;2.00;;;;;44.03;10.31;99883.09;5080429;28;45390;-74
2023/05/03 09:01:39;;;;;;;;;0.00;0.00;;;;;44.25;9.71;99884.09;5080554;28;45533;-74
2023/05/03 09:04:05;;;;;;;;;1.33;0.33;;;;;44.45;10.14;99878.84;5079161;27;46589;-74
2023/05/03 09:06:34;;;;;;;;;0.67;0.33;;;;;44.94;10.73;99891.19;5079743;27;45311;-71
2023/05/03 09:09:01;;;;;;;;;0.00;0.00;;;;;45.31;10.35;99883.78;5079784;28;45405;-72
2023/05/03 09:11:29;;;;;;;;;0.67;0.67;;;;;45.33;9.57;99885.28;5079733;27;45457;-72
2023/05/03 09:14:08;;;;;;;;;1.67;0.33;;;;;45.14;9.34;99886.75;5079626;28;46167;-72
2023/05/03 09:16:34;;;;;;;;;0.00;0.00;;;;;45.01;10.11;99895.75;5078396;28;45449;-72
2023/05/03 09:19:03;;;;;;;;;0.00;0.00;;;;;45.26;10.14;99884.31;5079716;28;45449;-72
2023/05/03 09:21:32;;;;;;;;;0.00;0.00;;;;;45.37;10.35;99892.13;5080159;28;45452;-73
2023/05/03 09:23:58;;;;;;;;;0.00;0.00;;;;;45.46;9.70;99887.31;5078207;28;46750;-73
2023/05/03 09:26:31;;;;;;;;;0.00;0.00;;;;;45.62;8.98;99891.69;5078986;28;45491;-73
2023/05/03 09:29:02;;;;;;;;;0.33;0.33;;;;;45.60;9.30;99893.78;5079858;28;45264;-73
2023/05/03 09:31:29;;;;;;;;;0.67;0.00;;;;;45.53;8.63;99888.22;5079752;28;45445;-73
2023/05/03 09:33:55;;;;;;;;;1.00;0.33;;;;;45.38;9.57;99892.97;5077606;28;45379;-73
2023/05/03 09:36:21;;;;;;;;;0.00;0.00;;;;;45.44;8.57;99886.66;5076411;28;45575;-73
2023/05/03 09:38:47;;;;;;;;;0.00;0.00;;;;;45.26;8.83;99884.31;5078200;28;45291;-73
2023/05/03 09:41:14;;;;;;;;;0.00;0.00;;;;;44.80;9.32;99885.47;5078197;28;45220;-73
2023/05/03 09:43:51;;;;;;;;;0.00;0.00;;;;;44.74;9.40;99896.44;5078108;28;46313;-73
2023/05/03 09:46:17;;;;;;;;;1.33;1.33;;;;;44.72;10.00;99898.53;5076942;28;45492;-73
2023/05/03 09:48:43;;;;;;;;;0.00;0.00;;;;;44.60;9.37;99890.75;5077924;28;45188;-72
2023/05/03 09:51:10;;;;;;;;;0.67;0.67;;;;;44.16;9.62;99904.50;5077877;28;45397;-72
2023/05/03 09:53:37;;;;;;;;;0.67;0.00;;;;;44.21;9.58;99907.53;5077465;28;45424;-72
2023/05/03 09:56:07;;;;;;;;;1.00;0.00;;;;;44.08;9.37;99902.69;5076353;28;45483;-73
2023/05/03 09:58:34;;;;;;;;;0.33;0.00;;;;;43.73;9.70;99899.53;5076403;28;45511;-72
2023/05/03 10:01:00;;;;;;;;;0.33;0.33;;;;;43.02;9.73;99885.09;5076490;28;45969;-72
2023/05/03 10:03:38;;;;;;;;;0.00;0.00;;;;;42.36;10.32;99893.59;5076408;28;46693;-73
2023/05/03 10:06:10;;;;;;;;;0.67;0.00;;;;;41.98;10.34;99889.69;5077728;28;45457;-72
2023/05/03 10:08:53;;;;;;;;;0.00;0.00;;;;;41.57;9.51;99907.00;5077971;28;45421;-72
2023/05/03 10:11:22;;;;;;;;;2.33;2.33;;;;;41.08;11.20;99885.81;5078599;27;45445;-72
2023/05/03 10:13:48;;;;;;;;;4.00;3.33;;;;;40.79;11.18;99897.25;5076542;28;47828;-72
2023/05/03 10:16:22;;;;;;;;;0.00;0.00;;;;;40.88;12.37;99904.44;5077387;28;45318;-72
2023/05/03 10:19:02;;;;;;;;;0.00;0.00;;;;;41.30;12.09;99892.56;5078428;28;45361;-72
2023/05/03 10:22:06;;;;;;;;;1.00;0.67;;;;;41.65;10.43;99903.44;5077195;27;45315;-73
2023/05/03 10:24:33;;;;;;;;;1.00;1.00;;;;;41.46;11.61;99888.13;5075287;28;46055;-72
2023/05/03 10:26:59;;;;;;;;;0.00;0.00;;;;;41.55;12.14;99876.16;5077048;28;45440;-72
2023/05/03 10:29:37;;;;;;;;;1.00;1.00;;;;;41.37;12.58;99895.50;5077495;27;45498;-72
2023/05/03 10:32:04;;;;;;;;;0.00;0.00;;;;;41.15;12.03;99892.34;5077766;28;45413;-72
2023/05/03 10:34:31;;;;;;;;;0.33;0.33;;;;;41.01;12.15;99889.41;5027378;27;1424955;-72
2023/05/03 10:37:01;;;;;;;;;3.00;2.67;;;;;40.77;11.99;99888.34;5079432;28;45254;-72
2023/05/03 10:39:27;;;;;;;;;0.33;0.33;;;;;40.77;12.40;99884.72;5078962;28;45296;-72
2023/05/03 10:42:06;;;;;;;;;1.33;0.67;;;;;41.02;12.97;99874.69;5079211;28;45311;-72
2023/05/03 10:44:52;;;;;;;;;2.67;2.33;;;;;41.00;12.30;99876.75;5078795;28;45477;-72
2023/05/03 10:47:23;;;;;;;;;1.33;0.67;;;;;41.02;12.78;99872.81;5078456;28;45346;-72
2023/05/03 10:50:10;;;;;;;;;0.33;0.33;;;;;41.46;11.74;99872.53;5079029;28;45477;-72
2023/05/03 10:52:42;;;;;;;;;1.00;1.00;;;;;41.26;11.10;99877.50;5079238;27;45412;-72
2023/05/03 10:55:14;;;;;;;;;0.00;0.00;;;;;41.39;12.27;99868.78;5077265;28;47156;-73
2023/05/03 10:57:42;;;;;;;;;0.00;0.00;;;;;41.45;11.71;99861.78;5077102;28;45329;-74
2023/05/03 11:00:12;;;;;;;;;0.00;0.00;;;;;41.44;12.06;99866.38;5078832;28;45550;-73
2023/05/03 11:03:18;;;;;;;;;0.00;0.00;;;;;41.29;11.69;99816.88;5077971;28;45476;-73
2023/05/03 11:05:46;;;;;;;;;1.00;0.67;;;;;41.38;11.27;99874.44;5056114;28;46762;-73
2023/05/03 11:08:17;;;;;;;;;0.67;0.00;;;;;41.23;12.09;99866.88;5077044;28;45475;-73
2023/05/03 11:10:43;;;;;;;;;0.33;0.33;;;;;40.65;10.73;99862.22;5078505;28;45392;-72
2023/05/03 11:13:09;;;;;;;;;0.67;0.00;;;;;39.95;11.20;99847.69;5077302;28;45601;-73
2023/05/03 11:15:35;;;;;;;;;4.33;3.67;;;;;39.84;12.05;99849.78;5076756;28;46173;-73
2023/05/03 11:18:01;;;;;;;;;0.00;0.00;;;;;39.12;11.90;99847.13;5078282;27;45318;-73
2023/05/03 11:20:27;;;;;;;;;2.67;1.67;;;;;38.31;13.39;99831.47;5078235;27;45301;-73
2023/05/03 11:22:53;;;;;;;;;1.67;1.33;;;;;38.01;13.28;99827.94;5078498;28;45449;-73
2023/05/03 11:25:18;;;;;;;;;0.33;0.33;;;;;37.76;12.61;99833.06;5077276;28;45642;-72
2023/05/03 11:27:46;;;;;;;;;0.00;0.00;;;;;37.13;12.69;99819.03;5077483;28;45477;-73
2023/05/03 11:30:13;;;;;;;;;0.67;0.67;;;;;36.95;14.15;99827.88;5077850;27;45227;-73